Time;durP1;ratioP1;P1;durP2;ratioP2;P2;SDS_P1;SDS_P2;PMS_P1;PMS_P2;Temp;Humidity;BMP_temperature;BMP_pressure;BME280_temperature;BME280_humidity;BME280_pressure;Samples;Min_cycle;Max_cycle;Signal;HPM_P1;HPM_P2
2021/11/09 00:02:12;;;;;;;8.30;6.07;;;;;;;;;;5040138;28;20217;-76
2021/11/09 00:04:41;;;;;;;8.73;5.95;;;;;;;;;;5029123;28;20186;-76
2021/11/09 00:10:07;;;;;;;14.93;7.13;;;;;;;;;;5022209;28;20209;-76
2021/11/09 00:12:34;;;;;;;9.95;6.55;;;;;;;;;;5018232;28;20214;-76
2021/11/09 00:15:01;;;;;;;9.95;6.50;;;;;;;;;;5019270;28;20257;-76
2021/11/09 00:17:28;;;;;;;9.10;6.22;;;;;;;;;;5039480;28;20544;-76
2021/11/09 00:19:54;;;;;;;7.85;6.20;;;;;;;;;;5019191;28;20190;-76
2021/11/09 00:22:22;;;;;;;11.07;7.20;;;;;;;;;;5022235;28;20195;-75
2021/11/09 00:24:48;;;;;;;11.43;6.65;;;;;;;;;;5017956;28;20191;-76
2021/11/09 00:27:14;;;;;;;13.10;6.88;;;;;;;;;;5016265;28;20194;-76
2021/11/09 00:29:40;;;;;;;12.32;7.20;;;;;;;;;;5019974;28;20179;-76
2021/11/09 00:32:07;;;;;;;12.30;7.00;;;;;;;;;;5016259;28;20207;-76
2021/11/09 00:34:33;;;;;;;11.80;7.25;;;;;;;;;;5045136;28;20226;-76
2021/11/09 00:37:00;;;;;;;14.00;7.10;;;;;;;;;;5024575;28;20239;-76
2021/11/09 00:39:26;;;;;;;10.07;7.25;;;;;;;;;;5019018;28;20179;-76
2021/11/09 00:41:52;;;;;;;10.77;6.22;;;;;;;;;;5019725;28;20238;-76
2021/11/09 00:44:18;;;;;;;12.48;7.95;;;;;;;;;;5020060;28;20186;-76
2021/11/09 00:46:44;;;;;;;8.52;6.07;;;;;;;;;;5018413;28;20222;-76
2021/11/09 00:49:10;;;;;;;6.88;6.18;;;;;;;;;;5023123;28;20198;-75
2021/11/09 00:51:36;;;;;;;10.75;7.30;;;;;;;;;;5016324;28;20293;-76
2021/11/09 00:54:04;;;;;;;13.00;6.43;;;;;;;;;;5017473;28;20186;-76
2021/11/09 00:56:30;;;;;;;15.10;7.13;;;;;;;;;;5018753;28;20270;-76
2021/11/09 00:58:57;;;;;;;9.65;6.10;;;;;;;;;;5021147;28;20202;-75
2021/11/09 01:01:24;;;;;;;7.63;6.05;;;;;;;;;;5030555;28;20178;-76
2021/11/09 01:03:50;;;;;;;11.23;5.63;;;;;;;;;;5023851;28;20326;-76
2021/11/09 01:06:16;;;;;;;9.98;5.90;;;;;;;;;;5017355;28;20194;-76
2021/11/09 01:08:42;;;;;;;10.77;6.30;;;;;;;;;;5039529;28;20182;-76
2021/11/09 01:11:08;;;;;;;7.70;5.55;;;;;;;;;;5024590;28;20269;-78
2021/11/09 01:13:34;;;;;;;11.75;6.25;;;;;;;;;;5019618;28;20189;-78
2021/11/09 01:16:01;;;;;;;7.63;5.97;;;;;;;;;;5022717;28;20274;-76
2021/11/09 01:18:29;;;;;;;14.27;6.47;;;;;;;;;;5017259;28;20183;-76
2021/11/09 01:20:55;;;;;;;9.27;6.03;;;;;;;;;;5035985;28;20179;-76
2021/11/09 01:23:22;;;;;;;10.30;6.82;;;;;;;;;;5017816;28;20185;-76
2021/11/09 01:25:48;;;;;;;10.70;6.80;;;;;;;;;;5017155;28;20250;-76
2021/11/09 01:28:14;;;;;;;11.13;6.65;;;;;;;;;;5017928;28;20191;-76
2021/11/09 01:30:41;;;;;;;13.38;6.80;;;;;;;;;;5022786;28;20186;-76
2021/11/09 01:33:07;;;;;;;13.23;6.70;;;;;;;;;;5017046;28;20679;-76
2021/11/09 01:35:34;;;;;;;12.32;7.25;;;;;;;;;;5039425;28;20174;-76
2021/11/09 01:38:00;;;;;;;10.07;6.28;;;;;;;;;;5021941;28;20190;-75
2021/11/09 01:40:27;;;;;;;8.25;6.30;;;;;;;;;;5019301;28;20576;-76
2021/11/09 01:42:54;;;;;;;8.00;6.47;;;;;;;;;;5022552;28;20191;-76
2021/11/09 01:45:21;;;;;;;8.88;5.60;;;;;;;;;;5021197;28;20186;-76
2021/11/09 01:47:47;;;;;;;10.88;6.05;;;;;;;;;;5050853;28;20213;-76
2021/11/09 01:50:15;;;;;;;8.65;5.63;;;;;;;;;;5018876;28;20206;-77
2021/11/09 01:52:41;;;;;;;6.50;5.68;;;;;;;;;;5017277;28;20211;-76
2021/11/09 01:55:09;;;;;;;9.73;6.53;;;;;;;;;;5031069;28;20190;-76
2021/11/09 01:57:35;;;;;;;10.05;6.10;;;;;;;;;;5034349;28;20179;-76
2021/11/09 02:00:03;;;;;;;7.60;6.20;;;;;;;;;;5016439;28;20251;-76
2021/11/09 02:02:30;;;;;;;11.25;5.55;;;;;;;;;;5038080;28;20274;-76
2021/11/09 02:04:56;;;;;;;7.75;5.50;;;;;;;;;;5018709;28;20186;-76
2021/11/09 02:07:22;;;;;;;9.50;6.30;;;;;;;;;;5018041;28;20298;-76
2021/11/09 02:09:48;;;;;;;11.68;5.60;;;;;;;;;;5021706;28;20245;-76
2021/11/09 02:12:14;;;;;;;6.53;5.65;;;;;;;;;;5020438;28;20206;-76
2021/11/09 02:14:40;;;;;;;7.05;5.43;;;;;;;;;;5038486;28;20178;-76
2021/11/09 02:17:07;;;;;;;10.80;6.47;;;;;;;;;;5015010;28;20206;-76
2021/11/09 02:19:34;;;;;;;9.50;5.65;;;;;;;;;;5031579;28;20186;-76
2021/11/09 02:22:00;;;;;;;12.13;6.10;;;;;;;;;;5022290;28;20507;-76
2021/11/09 02:24:26;;;;;;;9.30;5.75;;;;;;;;;;5020244;28;20189;-76
2021/11/09 02:26:52;;;;;;;7.78;5.03;;;;;;;;;;5054007;28;20357;-76
2021/11/09 02:29:18;;;;;;;6.53;5.22;;;;;;;;;;5025913;28;20217;-76
2021/11/09 02:31:44;;;;;;;7.50;5.93;;;;;;;;;;5022679;28;20214;-76
2021/11/09 02:34:10;;;;;;;7.07;5.75;;;;;;;;;;5023292;28;20194;-76
2021/11/09 02:36:36;;;;;;;8.77;5.88;;;;;;;;;;5025870;28;20179;-76
2021/11/09 02:39:02;;;;;;;9.80;5.32;;;;;;;;;;5021118;28;20210;-75
2021/11/09 02:41:28;;;;;;;9.32;5.35;;;;;;;;;;5021831;28;20193;-75
2021/11/09 02:43:57;;;;;;;9.80;5.20;;;;;;;;;;5020642;28;20187;-76
2021/11/09 02:48:58;;;;;;;10.07;5.75;;;;;;;;;;5024751;28;20194;-76
2021/11/09 02:51:38;;;;;;;6.60;5.25;;;;;;;;;;5018384;28;20213;-76
2021/11/09 02:56:38;;;;;;;7.78;5.72;;;;;;;;;;5021877;28;20217;-76
2021/11/09 03:06:53;;;;;;;8.10;5.05;;;;;;;;;;5020998;28;20206;-76
2021/11/09 03:09:33;;;;;;;6.63;5.40;;;;;;;;;;5021057;28;20191;-76
2021/11/09 03:12:01;;;;;;;7.70;5.90;;;;;;;;;;5037788;28;20333;-76
2021/11/09 03:14:28;;;;;;;15.50;5.95;;;;;;;;;;5041379;28;20230;-76
2021/11/09 03:16:57;;;;;;;6.00;4.68;;;;;;;;;;5019918;28;20561;-76
2021/11/09 03:19:46;;;;;;;8.68;5.22;;;;;;;;;;5024075;28;20659;-76
2021/11/09 03:44:21;;;;;;;10.45;6.95;;;;;;;;;;5022539;28;20197;-76
2021/11/09 03:46:52;;;;;;;11.00;6.82;;;;;;;;;;5028149;28;20320;-76
2021/11/09 03:49:19;;;;;;;13.10;7.10;;;;;;;;;;5026715;28;20214;-76
2021/11/09 03:51:46;;;;;;;10.10;6.93;;;;;;;;;;5027122;28;20237;-76
2021/11/09 03:54:14;;;;;;;7.45;6.53;;;;;;;;;;5017264;28;20175;-76
2021/11/09 03:56:52;;;;;;;9.73;6.80;;;;;;;;;;5041231;28;20186;-76
2021/11/09 03:59:28;;;;;;;11.15;6.82;;;;;;;;;;5038305;28;20194;-76
2021/11/09 04:15:22;;;;;;;12.45;5.80;;;;;;;;;;5003769;28;20183;-76
2021/11/09 04:36:10;;;;;;;11.35;7.00;;;;;;;;;;4981981;28;20267;-76
2021/11/09 04:39:42;;;;;;;9.35;6.25;;;;;;;;;;4980556;28;20176;-76
2021/11/09 04:48:03;;;;;;;15.93;7.25;;;;;;;;;;4998013;28;20230;-76
2021/11/09 04:52:58;;;;;;;12.05;6.78;;;;;;;;;;5007112;28;20625;-76
2021/11/09 05:09:09;;;;;;;8.90;6.32;;;;;;;;;;5043831;28;20200;-76
2021/11/09 05:11:37;;;;;;;13.10;6.30;;;;;;;;;;5046136;28;20209;-76
2021/11/09 05:14:04;;;;;;;10.18;6.00;;;;;;;;;;5045373;28;20178;-76
2021/11/09 05:16:30;;;;;;;11.38;6.80;;;;;;;;;;5041771;28;20190;-76
2021/11/09 05:18:56;;;;;;;12.20;6.95;;;;;;;;;;5041268;28;20181;-76
2021/11/09 05:21:22;;;;;;;7.93;6.82;;;;;;;;;;5046546;28;20178;-76
2021/11/09 05:23:48;;;;;;;10.30;6.75;;;;;;;;;;5046477;28;20178;-76
2021/11/09 05:26:15;;;;;;;8.25;6.90;;;;;;;;;;5044979;28;20180;-77
2021/11/09 05:28:41;;;;;;;10.80;6.40;;;;;;;;;;5032948;28;20270;-76
2021/11/09 05:31:07;;;;;;;8.63;6.88;;;;;;;;;;5018937;28;20197;-76
2021/11/09 05:33:34;;;;;;;13.55;6.55;;;;;;;;;;5022075;28;20710;-76
2021/11/09 05:36:01;;;;;;;7.13;5.60;;;;;;;;;;5017236;28;20224;-76
2021/11/09 05:38:32;;;;;;;10.63;6.35;;;;;;;;;;5023569;28;20190;-76
2021/11/09 05:41:06;;;;;;;8.27;6.97;;;;;;;;;;5038666;28;20182;-76
2021/11/09 05:43:32;;;;;;;8.02;5.65;;;;;;;;;;5037620;28;20210;-76
2021/11/09 05:45:59;;;;;;;15.18;6.35;;;;;;;;;;5021181;28;20217;-76
2021/11/09 05:48:25;;;;;;;9.02;6.78;;;;;;;;;;5016962;28;20187;-76
2021/11/09 05:50:51;;;;;;;13.02;6.50;;;;;;;;;;5039523;28;20225;-76
2021/11/09 05:53:17;;;;;;;8.38;6.22;;;;;;;;;;5019413;28;20217;-76
2021/11/09 05:55:43;;;;;;;6.90;5.53;;;;;;;;;;5018220;28;20210;-75
2021/11/09 05:58:09;;;;;;;14.35;5.97;;;;;;;;;;5035553;28;20286;-76
2021/11/09 06:00:35;;;;;;;7.80;6.35;;;;;;;;;;5016683;28;20237;-76
2021/11/09 06:03:01;;;;;;;9.90;6.28;;;;;;;;;;5020101;28;20198;-76
2021/11/09 06:05:27;;;;;;;12.23;6.80;;;;;;;;;;5038954;28;20221;-76
2021/11/09 06:07:53;;;;;;;12.63;5.30;;;;;;;;;;5018549;28;20182;-76
2021/11/09 06:10:20;;;;;;;15.18;7.05;;;;;;;;;;5017447;28;20194;-76
2021/11/09 06:12:46;;;;;;;7.70;6.30;;;;;;;;;;5021882;28;20205;-76
2021/11/09 06:15:12;;;;;;;7.45;5.72;;;;;;;;;;5021321;28;20174;-76
2021/11/09 06:17:38;;;;;;;9.32;6.43;;;;;;;;;;5035962;28;20174;-76
2021/11/09 06:20:04;;;;;;;8.95;5.85;;;;;;;;;;5020120;28;20201;-76
2021/11/09 06:22:31;;;;;;;9.25;5.43;;;;;;;;;;5018168;28;20655;-76
2021/11/09 06:24:57;;;;;;;10.73;6.93;;;;;;;;;;5015550;28;20219;-76
2021/11/09 06:27:23;;;;;;;7.80;5.97;;;;;;;;;;5037088;28;20190;-76
2021/11/09 06:29:50;;;;;;;11.35;6.15;;;;;;;;;;5018016;28;20220;-76
2021/11/09 06:32:17;;;;;;;9.00;5.95;;;;;;;;;;5016423;28;20209;-76
2021/11/09 06:34:42;;;;;;;10.55;5.68;;;;;;;;;;5033634;28;20179;-76
2021/11/09 06:37:09;;;;;;;7.03;5.63;;;;;;;;;;5017687;28;20640;-76
2021/11/09 06:39:35;;;;;;;8.00;6.10;;;;;;;;;;5033737;28;20182;-76
2021/11/09 06:42:01;;;;;;;7.72;6.35;;;;;;;;;;5017546;28;20229;-76
2021/11/09 06:44:27;;;;;;;8.93;5.82;;;;;;;;;;5038636;28;20178;-76
2021/11/09 06:46:53;;;;;;;9.93;5.75;;;;;;;;;;5017729;28;20309;-75
2021/11/09 06:49:19;;;;;;;9.68;6.72;;;;;;;;;;5018394;28;20608;-75
2021/11/09 06:51:45;;;;;;;10.55;6.22;;;;;;;;;;5023077;28;20234;-75
2021/11/09 06:54:12;;;;;;;13.77;7.60;;;;;;;;;;5019623;28;20637;-76
2021/11/09 06:56:38;;;;;;;11.10;6.28;;;;;;;;;;5021581;28;20174;-76
2021/11/09 06:59:06;;;;;;;14.10;6.82;;;;;;;;;;5016704;28;20183;-76
2021/11/09 07:01:32;;;;;;;8.07;5.43;;;;;;;;;;5017025;28;20183;-76
2021/11/09 07:03:58;;;;;;;7.43;5.75;;;;;;;;;;5052085;28;20197;-75
2021/11/09 07:06:24;;;;;;;8.27;5.53;;;;;;;;;;5017433;28;20190;-76
2021/11/09 07:08:51;;;;;;;8.23;5.70;;;;;;;;;;5020967;28;20182;-76
2021/11/09 07:11:17;;;;;;;8.18;5.60;;;;;;;;;;5021670;28;20248;-76
2021/11/09 07:13:44;;;;;;;5.53;5.03;;;;;;;;;;5021341;28;20245;-76
2021/11/09 07:16:11;;;;;;;13.23;6.38;;;;;;;;;;5024057;28;20678;-76
2021/11/09 07:18:37;;;;;;;8.13;5.80;;;;;;;;;;5017129;28;20210;-76
2021/11/09 07:21:03;;;;;;;9.25;4.43;;;;;;;;;;5020970;28;20214;-76
2021/11/09 07:23:29;;;;;;;10.35;5.28;;;;;;;;;;5051071;28;20182;-75
2021/11/09 07:25:55;;;;;;;6.82;5.55;;;;;;;;;;5019827;28;20242;-76
2021/11/09 07:28:21;;;;;;;6.47;5.88;;;;;;;;;;5020908;28;20195;-76
2021/11/09 07:31:03;;;;;;;6.88;5.80;;;;;;;;;;5020807;28;20218;-76
2021/11/09 07:33:29;;;;;;;11.95;4.97;;;;;;;;;;5023103;28;20313;-76
2021/11/09 07:35:55;;;;;;;8.10;4.80;;;;;;;;;;5023018;28;20175;-76
2021/11/09 07:38:22;;;;;;;9.30;5.68;;;;;;;;;;5024353;28;20237;-77
2021/11/09 07:40:48;;;;;;;16.95;10.70;;;;;;;;;;5050321;28;20540;-77
2021/11/09 07:43:15;;;;;;;12.43;8.00;;;;;;;;;;5021154;28;20738;-77
2021/11/09 07:45:42;;;;;;;11.18;6.00;;;;;;;;;;5024327;28;20222;-76
2021/11/09 07:48:08;;;;;;;10.85;6.43;;;;;;;;;;5024860;28;20182;-76
2021/11/09 07:50:34;;;;;;;10.85;6.07;;;;;;;;;;5023036;28;20666;-76
2021/11/09 07:53:02;;;;;;;14.98;9.15;;;;;;;;;;5040058;28;20206;-77
2021/11/09 07:55:31;;;;;;;6.20;5.60;;;;;;;;;;5021373;28;20178;-77
2021/11/09 07:58:00;;;;;;;9.10;5.90;;;;;;;;;;5023920;28;20178;-77
2021/11/09 08:00:32;;;;;;;8.90;5.65;;;;;;;;;;5025956;28;20185;-76
2021/11/09 08:03:18;;;;;;;11.68;6.47;;;;;;;;;;5018984;28;20171;-76
2021/11/09 08:08:40;;;;;;;6.75;5.70;;;;;;;;;;5019611;28;20190;-77
2021/11/09 08:11:06;;;;;;;9.90;6.00;;;;;;;;;;5017323;28;20711;-76
2021/11/09 08:13:32;;;;;;;5.32;4.50;;;;;;;;;;5021569;28;20202;-77
2021/11/09 08:15:58;;;;;;;10.38;6.22;;;;;;;;;;5020904;28;20254;-77
2021/11/09 08:18:24;;;;;;;7.20;5.00;;;;;;;;;;5018180;28;20237;-77
2021/11/09 08:20:50;;;;;;;10.95;5.82;;;;;;;;;;5024685;28;20186;-77
2021/11/09 08:23:17;;;;;;;12.80;5.45;;;;;;;;;;5016192;28;20249;-77
2021/11/09 08:25:43;;;;;;;7.38;5.03;;;;;;;;;;5017807;28;20255;-77
2021/11/09 08:28:09;;;;;;;6.75;5.30;;;;;;;;;;5019392;28;20285;-77
2021/11/09 08:30:35;;;;;;;8.25;5.57;;;;;;;;;;5021066;28;20567;-77
2021/11/09 08:33:03;;;;;;;12.30;5.40;;;;;;;;;;5022078;28;20278;-77
2021/11/09 08:35:30;;;;;;;9.95;5.63;;;;;;;;;;5037266;28;20276;-77
2021/11/09 08:37:57;;;;;;;15.02;6.15;;;;;;;;;;5018630;28;20171;-77
2021/11/09 08:40:23;;;;;;;10.15;4.70;;;;;;;;;;5016263;28;20182;-77
2021/11/09 08:42:54;;;;;;;7.60;4.75;;;;;;;;;;5019776;28;20194;-78
2021/11/09 08:45:36;;;;;;;13.38;5.10;;;;;;;;;;5020456;28;20218;-77
2021/11/09 08:48:09;;;;;;;11.02;5.00;;;;;;;;;;5035816;28;20194;-77
2021/11/09 08:50:36;;;;;;;10.07;5.35;;;;;;;;;;5022630;28;20179;-77
2021/11/09 08:53:07;;;;;;;9.40;5.20;;;;;;;;;;5020465;28;20693;-77
2021/11/09 08:58:33;;;;;;;15.60;8.07;;;;;;;;;;5010755;28;20598;-77
2021/11/09 09:01:17;;;;;;;19.38;9.10;;;;;;;;;;5018865;28;20186;-77
2021/11/09 09:06:29;;;;;;;7.88;7.05;;;;;;;;;;5021011;28;20559;-78
2021/11/09 09:08:55;;;;;;;9.25;7.25;;;;;;;;;;5035433;28;20672;-78
2021/11/09 09:11:21;;;;;;;16.00;7.60;;;;;;;;;;5037083;28;20190;-78
2021/11/09 09:13:48;;;;;;;21.02;10.32;;;;;;;;;;5017561;28;20187;-78
2021/11/09 09:16:14;;;;;;;13.23;8.02;;;;;;;;;;5048183;28;20187;-77
2021/11/09 09:18:40;;;;;;;13.95;9.75;;;;;;;;;;5019378;28;20258;-77
2021/11/09 09:21:13;;;;;;;18.02;9.32;;;;;;;;;;5020927;28;20235;-77
2021/11/09 09:23:51;;;;;;;17.38;9.32;;;;;;;;;;5022591;28;20174;-77
2021/11/09 09:26:34;;;;;;;16.70;10.00;;;;;;;;;;5017310;28;20186;-77
2021/11/09 09:53:32;;;;;;;21.15;12.32;;;;;;;;;;5020301;28;20217;-78
2021/11/09 09:56:44;;;;;;;25.45;13.95;;;;;;;;;;5018412;28;20201;-77
2021/11/09 09:58:48;;;;;;;19.65;12.07;;;;;;;;;;5020455;28;20182;-77
2021/11/09 10:01:15;;;;;;;20.42;11.73;;;;;;;;;;5017847;28;20269;-77
2021/11/09 10:03:42;;;;;;;19.92;11.13;;;;;;;;;;5016521;28;20197;-78
2021/11/09 10:06:08;;;;;;;20.75;12.57;;;;;;;;;;5021643;28;20412;-77
2021/11/09 10:08:48;;;;;;;20.05;13.27;;;;;;;;;;5036420;28;20316;-77
2021/11/09 10:11:32;;;;;;;15.45;11.55;;;;;;;;;;5019771;28;20178;-78
2021/11/09 10:13:58;;;;;;;21.52;13.40;;;;;;;;;;5019653;28;20198;-77
2021/11/09 10:16:24;;;;;;;26.10;14.25;;;;;;;;;;5019457;28;20186;-77
2021/11/09 10:18:50;;;;;;;21.33;13.07;;;;;;;;;;5018038;28;20194;-77
2021/11/09 10:21:17;;;;;;;17.27;11.95;;;;;;;;;;5020653;28;20186;-77
2021/11/09 10:23:43;;;;;;;20.00;13.30;;;;;;;;;;5039091;28;20174;-78
2021/11/09 10:26:11;;;;;;;20.80;13.07;;;;;;;;;;5019698;28;20189;-77
2021/11/09 10:28:37;;;;;;;31.20;12.35;;;;;;;;;;5017700;28;20210;-77
2021/11/09 10:31:05;;;;;;;23.77;13.35;;;;;;;;;;5018534;28;20190;-77
2021/11/09 10:33:38;;;;;;;21.00;14.25;;;;;;;;;;5003908;28;20207;-77
2021/11/09 10:36:15;;;;;;;29.17;14.10;;;;;;;;;;5021087;28;20174;-77
2021/11/09 10:38:41;;;;;;;20.58;12.75;;;;;;;;;;5036512;28;20674;-77
2021/11/09 10:41:07;;;;;;;24.15;13.63;;;;;;;;;;5019493;28;20232;-78
2021/11/09 10:43:33;;;;;;;18.02;13.00;;;;;;;;;;5020631;28;20194;-77
2021/11/09 10:46:00;;;;;;;21.00;11.77;;;;;;;;;;5021579;28;20305;-77
2021/11/09 10:48:27;;;;;;;18.33;12.32;;;;;;;;;;5018179;28;20191;-78
2021/11/09 10:50:58;;;;;;;22.40;11.73;;;;;;;;;;5040329;28;20183;-79
2021/11/09 11:06:23;;;;;;;26.92;11.80;;;;;;;;;;5021559;28;20186;-78
2021/11/09 11:08:53;;;;;;;14.63;9.88;;;;;;;;;;5041533;28;20182;-77
2021/11/09 11:11:19;;;;;;;16.80;9.18;;;;;;;;;;5033578;28;20201;-77
2021/11/09 11:13:45;;;;;;;16.98;9.02;;;;;;;;;;5022989;28;20187;-77
2021/11/09 11:16:16;;;;;;;19.17;10.50;;;;;;;;;;5031684;28;20636;-78
2021/11/09 11:18:43;;;;;;;11.88;8.43;;;;;;;;;;5041004;28;20178;-78
2021/11/09 11:21:10;;;;;;;16.80;10.63;;;;;;;;;;5038357;28;20346;-78
2021/11/09 11:23:37;;;;;;;16.50;9.43;;;;;;;;;;5039367;28;20272;-78
2021/11/09 11:26:07;;;;;;;20.98;10.30;;;;;;;;;;5037567;28;20269;-78
2021/11/09 11:28:34;;;;;;;16.92;10.15;;;;;;;;;;5021828;28;20186;-77
2021/11/09 11:31:00;;;;;;;16.48;9.90;;;;;;;;;;5039855;28;20226;-77
2021/11/09 11:33:27;;;;;;;20.27;10.30;;;;;;;;;;5024858;28;20233;-78
2021/11/09 11:35:53;;;;;;;19.77;10.40;;;;;;;;;;5041682;28;20178;-78
2021/11/09 11:38:22;;;;;;;20.83;10.15;;;;;;;;;;5024920;28;20648;-77
2021/11/09 11:40:50;;;;;;;17.98;9.57;;;;;;;;;;5024787;28;20516;-78
2021/11/09 11:43:36;;;;;;;16.15;10.00;;;;;;;;;;5019370;28;20187;-78
2021/11/09 11:46:02;;;;;;;15.68;10.00;;;;;;;;;;5022073;28;20224;-78
2021/11/09 11:48:28;;;;;;;18.23;8.90;;;;;;;;;;5009076;28;20214;-78
2021/11/09 11:50:55;;;;;;;18.33;9.48;;;;;;;;;;5041591;28;20209;-78
2021/11/09 11:53:40;;;;;;;16.80;8.93;;;;;;;;;;5012033;28;20243;-78
2021/11/09 11:56:09;;;;;;;16.73;8.10;;;;;;;;;;5021131;28;20202;-78
2021/11/09 11:58:35;;;;;;;20.00;9.40;;;;;;;;;;5020282;28;20187;-78
2021/11/09 12:01:01;;;;;;;12.68;8.10;;;;;;;;;;5023642;28;20317;-77
2021/11/09 12:03:27;;;;;;;14.25;9.23;;;;;;;;;;5030764;28;20178;-78
2021/11/09 12:05:54;;;;;;;18.98;9.50;;;;;;;;;;5025333;28;20178;-78
2021/11/09 12:08:39;;;;;;;16.38;10.32;;;;;;;;;;5024055;28;20200;-77
2021/11/09 12:11:07;;;;;;;14.27;9.32;;;;;;;;;;5041386;28;20234;-77
2021/11/09 12:13:54;;;;;;;14.07;8.52;;;;;;;;;;5032731;28;20233;-78
2021/11/09 12:16:39;;;;;;;15.55;8.20;;;;;;;;;;5031071;28;20183;-79
2021/11/09 12:19:05;;;;;;;17.15;8.55;;;;;;;;;;5033386;28;20183;-79
2021/11/09 12:21:34;;;;;;;15.02;9.30;;;;;;;;;;5023976;28;20192;-78
2021/11/09 12:24:08;;;;;;;20.02;8.15;;;;;;;;;;5022627;28;20174;-78
2021/11/09 12:26:38;;;;;;;17.25;7.68;;;;;;;;;;5052263;28;20201;-79
2021/11/09 12:29:24;;;;;;;12.60;7.93;;;;;;;;;;5022172;28;20201;-79
2021/11/09 12:31:50;;;;;;;16.33;8.80;;;;;;;;;;5027459;28;20247;-78
2021/11/09 12:34:16;;;;;;;14.75;8.48;;;;;;;;;;5030782;28;20178;-78
2021/11/09 12:36:42;;;;;;;21.83;9.60;;;;;;;;;;5029140;28;20201;-78
2021/11/09 12:39:19;;;;;;;23.53;10.30;;;;;;;;;;5031731;28;20702;-78
2021/11/09 12:41:54;;;;;;;16.40;8.43;;;;;;;;;;5039092;28;20473;-78
2021/11/09 12:44:31;;;;;;;17.95;9.68;;;;;;;;;;5026446;28;20447;-78
2021/11/09 12:47:07;;;;;;;15.75;8.75;;;;;;;;;;5015492;28;20228;-79
2021/11/09 12:49:38;;;;;;;13.43;8.55;;;;;;;;;;5023335;28;20190;-78
2021/11/09 12:52:04;;;;;;;18.25;8.07;;;;;;;;;;5021804;28;20210;-78
2021/11/09 12:54:30;;;;;;;11.10;7.78;;;;;;;;;;5023693;28;20187;-78
2021/11/09 12:57:06;;;;;;;14.90;7.90;;;;;;;;;;5022622;28;20517;-78
2021/11/09 12:59:43;;;;;;;22.63;11.30;;;;;;;;;;5021962;28;20179;-78
2021/11/09 13:09:44;;;;;;;13.88;8.48;;;;;;;;;;5022246;28;20227;-78
2021/11/09 13:12:12;;;;;;;17.05;8.75;;;;;;;;;;5021859;28;20202;-78
2021/11/09 13:14:40;;;;;;;15.98;7.53;;;;;;;;;;5038369;28;20189;-78
2021/11/09 13:17:23;;;;;;;12.07;7.55;;;;;;;;;;5028162;28;20262;-78
2021/11/09 13:19:58;;;;;;;13.32;6.93;;;;;;;;;;5013951;28;20182;-78
2021/11/09 13:22:30;;;;;;;17.52;8.15;;;;;;;;;;5037396;28;20189;-78
2021/11/09 13:25:04;;;;;;;12.45;8.85;;;;;;;;;;5025583;28;20183;-78
2021/11/09 13:27:37;;;;;;;15.45;9.30;;;;;;;;;;5048286;28;20196;-78
2021/11/09 13:30:14;;;;;;;12.82;9.00;;;;;;;;;;5030642;28;20382;-77
2021/11/09 13:32:41;;;;;;;18.02;11.23;;;;;;;;;;5046314;28;20201;-79
2021/11/09 13:35:15;;;;;;;22.80;12.25;;;;;;;;;;5029809;28;20197;-78
2021/11/09 13:37:41;;;;;;;24.83;10.43;;;;;;;;;;5026395;28;20186;-79
2021/11/09 13:40:08;;;;;;;14.80;10.25;;;;;;;;;;5029225;28;20193;-78
2021/11/09 13:42:34;;;;;;;17.48;8.95;;;;;;;;;;5023420;28;20209;-78
2021/11/09 13:45:00;;;;;;;20.80;10.63;;;;;;;;;;5022618;28;20265;-77
2021/11/09 13:47:35;;;;;;;13.88;9.30;;;;;;;;;;5022769;28;20218;-78
2021/11/09 13:50:10;;;;;;;21.02;12.55;;;;;;;;;;5018676;28;20671;-78
2021/11/09 13:52:43;;;;;;;23.50;13.27;;;;;;;;;;5018530;28;20273;-78
2021/11/09 13:55:09;;;;;;;22.40;13.25;;;;;;;;;;5018808;28;20183;-77
2021/11/09 13:57:35;;;;;;;20.77;12.05;;;;;;;;;;5023914;28;20236;-78
2021/11/09 14:00:23;;;;;;;20.08;13.07;;;;;;;;;;5024590;28;20206;-78
2021/11/09 14:03:02;;;;;;;16.67;10.82;;;;;;;;;;5018731;28;20178;-78
2021/11/09 14:06:14;;;;;;;17.83;11.15;;;;;;;;;;5021527;28;20185;-79
2021/11/09 14:13:56;;;;;;;18.67;11.73;;;;;;;;;;5021292;28;20293;-80
2021/11/09 14:16:55;;;;;;;19.27;11.07;;;;;;;;;;5026104;28;20191;-81
2021/11/09 14:19:23;;;;;;;32.35;12.63;;;;;;;;;;5026656;28;20187;-82
2021/11/09 14:21:50;;;;;;;25.15;11.80;;;;;;;;;;5040727;28;20219;-82
2021/11/09 14:24:16;;;;;;;22.85;10.95;;;;;;;;;;5028417;28;20242;-81
2021/11/09 14:26:46;;;;;;;19.20;11.23;;;;;;;;;;5030462;28;20171;-82
2021/11/09 14:29:21;;;;;;;24.23;11.95;;;;;;;;;;5022446;28;20182;-82
2021/11/09 14:31:59;;;;;;;15.10;11.52;;;;;;;;;;5039056;28;20284;-81
2021/11/09 14:34:27;;;;;;;18.33;10.43;;;;;;;;;;5038767;28;20552;-82
2021/11/09 14:36:57;;;;;;;18.25;11.55;;;;;;;;;;5021602;28;20182;-82
2021/11/09 14:39:26;;;;;;;19.23;10.50;;;;;;;;;;5023365;28;20170;-81
2021/11/09 14:42:03;;;;;;;19.30;12.00;;;;;;;;;;5039005;28;20636;-82
2021/11/09 14:44:49;;;;;;;19.35;11.38;;;;;;;;;;5034231;28;20182;-81
2021/11/09 14:47:18;;;;;;;14.60;9.77;;;;;;;;;;5031943;28;20222;-82
2021/11/09 14:49:55;;;;;;;21.73;11.02;;;;;;;;;;5028336;28;20629;-82
2021/11/09 14:52:23;;;;;;;18.60;11.38;;;;;;;;;;5020242;28;20221;-81
2021/11/09 14:54:51;;;;;;;17.75;10.02;;;;;;;;;;5021974;28;20174;-81
2021/11/09 14:57:17;;;;;;;17.20;10.70;;;;;;;;;;5021865;28;20240;-81
2021/11/09 15:00:00;;;;;;;23.90;12.88;;;;;;;;;;5038395;28;20186;-82
2021/11/09 15:02:26;;;;;;;28.13;10.38;;;;;;;;;;5023414;28;20662;-81
2021/11/09 15:04:54;;;;;;;19.75;11.52;;;;;;;;;;5022421;28;20242;-81
2021/11/09 15:07:24;;;;;;;17.10;10.38;;;;;;;;;;5021904;28;20727;-81
2021/11/09 15:12:30;;;;;;;15.25;8.82;;;;;;;;;;5021649;28;20293;-81
2021/11/09 15:26:07;;;;;;;17.67;9.15;;;;;;;;;;5022070;28;20262;-80
2021/11/09 15:36:43;;;;;;;15.95;6.80;;;;;;;;;;5026464;28;20267;-81
2021/11/09 15:39:09;;;;;;;14.90;7.00;;;;;;;;;;5038596;28;20177;-81
2021/11/09 15:41:35;;;;;;;8.88;6.80;;;;;;;;;;5046876;28;20182;-81
2021/11/09 15:44:01;;;;;;;15.13;7.00;;;;;;;;;;5018200;28;20626;-82
2021/11/09 15:46:27;;;;;;;18.00;7.60;;;;;;;;;;5015188;28;20903;-81
2021/11/09 15:48:53;;;;;;;12.10;5.80;;;;;;;;;;5022955;28;20254;-81
2021/11/09 15:51:22;;;;;;;13.60;6.20;;;;;;;;;;5031750;28;20241;-81
2021/11/09 15:53:49;;;;;;;19.30;6.57;;;;;;;;;;5039380;28;20464;-81
2021/11/09 15:56:15;;;;;;;17.58;6.53;;;;;;;;;;5024099;28;20189;-82
2021/11/09 15:58:41;;;;;;;11.77;5.10;;;;;;;;;;5021023;28;20205;-81
2021/11/09 16:01:08;;;;;;;13.65;5.68;;;;;;;;;;5019894;28;20178;-81
2021/11/09 16:03:36;;;;;;;14.82;5.97;;;;;;;;;;5022419;28;20190;-81
2021/11/09 16:06:04;;;;;;;10.40;5.78;;;;;;;;;;5024389;28;20268;-81
2021/11/09 16:08:32;;;;;;;14.32;5.70;;;;;;;;;;5046660;28;20192;-82
2021/11/09 16:11:02;;;;;;;11.63;5.72;;;;;;;;;;5023817;28;20666;-82
2021/11/09 16:13:28;;;;;;;10.23;5.57;;;;;;;;;;5016592;28;20211;-81
2021/11/09 16:15:54;;;;;;;11.55;6.97;;;;;;;;;;5039302;28;20178;-82
2021/11/09 16:18:21;;;;;;;22.77;15.30;;;;;;;;;;5023339;28;20803;-81
2021/11/09 16:20:47;;;;;;;19.83;10.10;;;;;;;;;;5057549;28;20389;-82
2021/11/09 16:23:13;;;;;;;11.48;6.00;;;;;;;;;;5027578;28;20253;-81
2021/11/09 16:25:40;;;;;;;17.02;8.38;;;;;;;;;;5044736;28;20186;-81
2021/11/09 16:28:06;;;;;;;12.65;7.68;;;;;;;;;;5030360;28;20189;-81
2021/11/09 16:30:33;;;;;;;11.00;7.80;;;;;;;;;;5022083;28;20232;-81
2021/11/09 16:33:02;;;;;;;24.17;10.40;;;;;;;;;;4997976;28;20246;-81
2021/11/09 16:35:34;;;;;;;15.35;12.27;;;;;;;;;;5018374;28;20214;-81
2021/11/09 16:38:09;;;;;;;14.65;8.60;;;;;;;;;;5025866;28;20265;-82
2021/11/09 16:40:38;;;;;;;16.95;11.55;;;;;;;;;;5020328;28;20182;-81
2021/11/09 16:45:35;;;;;;;21.40;11.30;;;;;;;;;;5016064;28;20194;-82
2021/11/09 16:48:06;;;;;;;16.73;9.85;;;;;;;;;;5016884;28;20214;-81
2021/11/09 16:53:16;;;;;;;25.05;10.25;;;;;;;;;;5023070;28;20242;-81
2021/11/09 16:56:11;;;;;;;35.30;16.75;;;;;;;;;;5020366;28;20193;-81
2021/11/09 17:01:15;;;;;;;22.25;13.98;;;;;;;;;;5023663;28;20217;-81
2021/11/09 18:20:07;;;;;;;14.32;10.73;;;;;;;;;;5021991;28;20209;-81
2021/11/09 18:22:34;;;;;;;17.38;12.00;;;;;;;;;;5021464;28;20252;-80
2021/11/09 18:25:01;;;;;;;17.13;11.38;;;;;;;;;;5022498;28;20472;-81
2021/11/09 18:27:27;;;;;;;19.08;12.32;;;;;;;;;;5021083;28;20201;-80
2021/11/09 18:29:53;;;;;;;18.27;13.25;;;;;;;;;;5051050;28;20190;-80
2021/11/09 18:32:19;;;;;;;18.25;13.23;;;;;;;;;;5028031;28;20209;-80
2021/11/09 18:34:46;;;;;;;22.10;14.70;;;;;;;;;;5028871;28;20246;-81
2021/11/09 18:37:13;;;;;;;27.65;17.42;;;;;;;;;;5025011;28;20182;-80
2021/11/09 18:39:39;;;;;;;23.10;17.33;;;;;;;;;;5025089;28;20186;-80
2021/11/09 18:42:06;;;;;;;24.17;17.85;;;;;;;;;;5030009;28;20200;-81
2021/11/09 18:44:36;;;;;;;61.55;33.70;;;;;;;;;;5029552;28;20265;-81
2021/11/09 18:47:03;;;;;;;120.93;69.75;;;;;;;;;;5029609;28;20213;-80
2021/11/09 18:49:29;;;;;;;347.92;182.52;;;;;;;;;;5028490;28;20205;-80
2021/11/09 18:51:55;;;;;;;91.32;53.88;;;;;;;;;;5021556;28;20221;-80
2021/11/09 18:54:21;;;;;;;63.83;42.08;;;;;;;;;;5021701;28;20832;-80
2021/11/09 18:56:50;;;;;;;31.85;20.33;;;;;;;;;;5023426;28;20178;-81
2021/11/09 18:59:17;;;;;;;50.78;38.20;;;;;;;;;;5026342;28;20183;-79